sensor_id;sensor_type;location;lat;lon;timestamp;pressure;altitude;pressure_sealevel;temperature
66372;BMP180;53168;51.146;17.120;2023-11-19T00:01:20;100620.20;;;2.40
66372;BMP180;53168;51.146;17.120;2023-11-19T00:04:39;100622.80;;;2.32
66372;BMP180;53168;51.146;17.120;2023-11-19T00:07:20;100622.80;;;2.30
66372;BMP180;53168;51.146;17.120;2023-11-19T00:10:22;100620.00;;;2.30
66372;BMP180;53168;51.146;17.120;2023-11-19T00:12:57;100610.80;;;2.30
66372;BMP180;53168;51.146;17.120;2023-11-19T00:15:31;100600.00;;;2.30
66372;BMP180;53168;51.146;17.120;2023-11-19T00:18:10;100588.20;;;2.30
66372;BMP180;53168;51.146;17.120;2023-11-19T00:20:44;100580.60;;;2.30
66372;BMP180;53168;51.146;17.120;2023-11-19T00:23:18;100571.00;;;2.20
66372;BMP180;53168;51.146;17.120;2023-11-19T00:25:52;100573.00;;;2.20
66372;BMP180;53168;51.146;17.120;2023-11-19T00:28:27;100572.20;;;2.20
66372;BMP180;53168;51.146;17.120;2023-11-19T00:31:04;100562.40;;;2.20
66372;BMP180;53168;51.146;17.120;2023-11-19T00:33:38;100558.40;;;2.20
66372;BMP180;53168;51.146;17.120;2023-11-19T00:36:22;100548.00;;;2.20
66372;BMP180;53168;51.146;17.120;2023-11-19T00:39:00;100541.80;;;2.20
66372;BMP180;53168;51.146;17.120;2023-11-19T00:41:35;100528.20;;;2.20
66372;BMP180;53168;51.146;17.120;2023-11-19T00:44:10;100530.40;;;2.22
66372;BMP180;53168;51.146;17.120;2023-11-19T00:47:04;100531.40;;;2.26
66372;BMP180;53168;51.146;17.120;2023-11-19T00:49:38;100519.20;;;2.30
66372;BMP180;53168;51.146;17.120;2023-11-19T00:52:12;100504.40;;;2.20
66372;BMP180;53168;51.146;17.120;2023-11-19T00:54:47;100490.40;;;2.20
66372;BMP180;53168;51.146;17.120;2023-11-19T00:57:22;100489.40;;;2.10
66372;BMP180;53168;51.146;17.120;2023-11-19T00:59:57;100486.00;;;2.10
66372;BMP180;53168;51.146;17.120;2023-11-19T01:02:31;100487.60;;;2.00
66372;BMP180;53168;51.146;17.120;2023-11-19T01:05:09;100488.20;;;1.90
66372;BMP180;53168;51.146;17.120;2023-11-19T01:07:49;100482.00;;;1.90
66372;BMP180;53168;51.146;17.120;2023-11-19T01:10:27;100471.00;;;1.80
66372;BMP180;53168;51.146;17.120;2023-11-19T01:13:01;100460.40;;;1.80
66372;BMP180;53168;51.146;17.120;2023-11-19T01:15:38;100448.00;;;1.78
66372;BMP180;53168;51.146;17.120;2023-11-19T01:18:17;100443.60;;;1.76
66372;BMP180;53168;51.146;17.120;2023-11-19T01:20:53;100423.00;;;1.70
66372;BMP180;53168;51.146;17.120;2023-11-19T01:23:30;100418.80;;;1.70
66372;BMP180;53168;51.146;17.120;2023-11-19T01:26:06;100418.80;;;1.60
66372;BMP180;53168;51.146;17.120;2023-11-19T01:28:44;100408.40;;;1.60
66372;BMP180;53168;51.146;17.120;2023-11-19T01:31:36;100399.20;;;1.60
66372;BMP180;53168;51.146;17.120;2023-11-19T01:34:11;100387.40;;;1.50
66372;BMP180;53168;51.146;17.120;2023-11-19T01:36:50;100389.40;;;1.50
66372;BMP180;53168;51.146;17.120;2023-11-19T01:39:24;100389.20;;;1.50
66372;BMP180;53168;51.146;17.120;2023-11-19T01:42:14;100376.40;;;1.50
66372;BMP180;53168;51.146;17.120;2023-11-19T01:45:02;100369.60;;;1.50
66372;BMP180;53168;51.146;17.120;2023-11-19T01:47:42;100371.80;;;1.60
66372;BMP180;53168;51.146;17.120;2023-11-19T01:50:17;100370.20;;;1.60
66372;BMP180;53168;51.146;17.120;2023-11-19T01:52:53;100377.60;;;1.70
66372;BMP180;53168;51.146;17.120;2023-11-19T01:55:31;100380.40;;;1.70
66372;BMP180;53168;51.146;17.120;2023-11-19T01:58:08;100377.20;;;1.80
66372;BMP180;53168;51.146;17.120;2023-11-19T02:00:42;100367.60;;;1.80
66372;BMP180;53168;51.146;17.120;2023-11-19T02:03:22;100360.80;;;1.80
66372;BMP180;53168;51.146;17.120;2023-11-19T02:06:10;100350.80;;;1.80
66372;BMP180;53168;51.146;17.120;2023-11-19T02:08:45;100350.00;;;1.80
66372;BMP180;53168;51.146;17.120;2023-11-19T02:11:21;100337.60;;;1.80
66372;BMP180;53168;51.146;17.120;2023-11-19T02:13:56;100339.80;;;1.80
66372;BMP180;53168;51.146;17.120;2023-11-19T02:16:30;100346.60;;;1.80
66372;BMP180;53168;51.146;17.120;2023-11-19T02:19:05;100352.00;;;1.80
66372;BMP180;53168;51.146;17.120;2023-11-19T02:21:42;100346.00;;;1.88
66372;BMP180;53168;51.146;17.120;2023-11-19T02:24:27;100330.20;;;1.90
66372;BMP180;53168;51.146;17.120;2023-11-19T02:30:13;100320.80;;;1.90
66372;BMP180;53168;51.146;17.120;2023-11-19T02:32:47;100315.80;;;1.92
66372;BMP180;53168;51.146;17.120;2023-11-19T02:35:21;100310.40;;;1.90
66372;BMP180;53168;51.146;17.120;2023-11-19T02:37:55;100312.00;;;1.90
66372;BMP180;53168;51.146;17.120;2023-11-19T02:40:53;100301.20;;;1.90
66372;BMP180;53168;51.146;17.120;2023-11-19T02:43:28;100292.60;;;1.90
66372;BMP180;53168;51.146;17.120;2023-11-19T02:46:07;100291.40;;;1.94
66372;BMP180;53168;51.146;17.120;2023-11-19T02:48:47;100287.40;;;1.90
66372;BMP180;53168;51.146;17.120;2023-11-19T02:51:22;100286.80;;;1.90
66372;BMP180;53168;51.146;17.120;2023-11-19T02:53:58;100288.80;;;1.90
66372;BMP180;53168;51.146;17.120;2023-11-19T02:56:32;100292.00;;;1.90
66372;BMP180;53168;51.146;17.120;2023-11-19T02:59:09;100288.20;;;1.90
66372;BMP180;53168;51.146;17.120;2023-11-19T03:02:00;100276.40;;;1.90
66372;BMP180;53168;51.146;17.120;2023-11-19T03:04:35;100265.60;;;1.86
66372;BMP180;53168;51.146;17.120;2023-11-19T03:07:10;100269.60;;;1.90
66372;BMP180;53168;51.146;17.120;2023-11-19T03:09:44;100253.40;;;1.84
66372;BMP180;53168;51.146;17.120;2023-11-19T03:12:19;100241.00;;;1.88
66372;BMP180;53168;51.146;17.120;2023-11-19T03:14:53;100236.00;;;1.90
66372;BMP180;53168;51.146;17.120;2023-11-19T03:17:29;100232.60;;;1.90
66372;BMP180;53168;51.146;17.120;2023-11-19T03:20:07;100223.40;;;1.90
66372;BMP180;53168;51.146;17.120;2023-11-19T03:22:48;100219.20;;;1.90
66372;BMP180;53168;51.146;17.120;2023-11-19T03:25:29;100219.40;;;1.90
66372;BMP180;53168;51.146;17.120;2023-11-19T03:29:02;100213.20;;;1.90
66372;BMP180;53168;51.146;17.120;2023-11-19T03:31:36;100218.00;;;1.90
66372;BMP180;53168;51.146;17.120;2023-11-19T03:34:10;100217.40;;;1.90
66372;BMP180;53168;51.146;17.120;2023-11-19T03:36:44;100207.40;;;1.90
66372;BMP180;53168;51.146;17.120;2023-11-19T03:39:19;100211.00;;;1.90
66372;BMP180;53168;51.146;17.120;2023-11-19T03:41:53;100210.40;;;1.80
66372;BMP180;53168;51.146;17.120;2023-11-19T03:47:36;100187.60;;;1.80
66372;BMP180;53168;51.146;17.120;2023-11-19T03:50:11;100177.20;;;1.80
66372;BMP180;53168;51.146;17.120;2023-11-19T03:52:49;100168.20;;;1.80
66372;BMP180;53168;51.146;17.120;2023-11-19T03:55:24;100169.80;;;1.80
66372;BMP180;53168;51.146;17.120;2023-11-19T03:58:02;100166.80;;;1.80
66372;BMP180;53168;51.146;17.120;2023-11-19T04:00:36;100156.40;;;1.88
66372;BMP180;53168;51.146;17.120;2023-11-19T04:03:12;100144.60;;;1.90
66372;BMP180;53168;51.146;17.120;2023-11-19T04:05:46;100138.00;;;1.90
66372;BMP180;53168;51.146;17.120;2023-11-19T04:08:26;100142.40;;;2.00
66372;BMP180;53168;51.146;17.120;2023-11-19T04:11:03;100145.00;;;2.00
66372;BMP180;53168;51.146;17.120;2023-11-19T04:13:38;100136.60;;;2.00
66372;BMP180;53168;51.146;17.120;2023-11-19T04:16:12;100131.60;;;1.98
66372;BMP180;53168;51.146;17.120;2023-11-19T04:18:48;100111.80;;;1.90
66372;BMP180;53168;51.146;17.120;2023-11-19T04:21:27;100103.00;;;1.90
66372;BMP180;53168;51.146;17.120;2023-11-19T04:24:01;100098.20;;;1.90
66372;BMP180;53168;51.146;17.120;2023-11-19T04:26:36;100079.20;;;1.90
66372;BMP180;53168;51.146;17.120;2023-11-19T04:29:15;100073.40;;;1.90
66372;BMP180;53168;51.146;17.120;2023-11-19T04:31:53;100062.80;;;1.90
66372;BMP180;53168;51.146;17.120;2023-11-19T04:34:28;100054.80;;;1.92
66372;BMP180;53168;51.146;17.120;2023-11-19T04:37:02;100044.80;;;1.94
66372;BMP180;53168;51.146;17.120;2023-11-19T04:39:39;100029.80;;;1.90
66372;BMP180;53168;51.146;17.120;2023-11-19T04:42:14;100014.00;;;1.90
66372;BMP180;53168;51.146;17.120;2023-11-19T04:44:50;100021.40;;;1.90
66372;BMP180;53168;51.146;17.120;2023-11-19T04:47:24;100022.00;;;1.90
66372;BMP180;53168;51.146;17.120;2023-11-19T04:49:58;100023.80;;;1.90
66372;BMP180;53168;51.146;17.120;2023-11-19T04:52:32;100013.60;;;1.90
66372;BMP180;53168;51.146;17.120;2023-11-19T04:55:22;100011.20;;;1.90
66372;BMP180;53168;51.146;17.120;2023-11-19T04:57:58;100011.60;;;1.90
66372;BMP180;53168;51.146;17.120;2023-11-19T05:00:32;100018.40;;;1.96
66372;BMP180;53168;51.146;17.120;2023-11-19T05:03:06;100014.20;;;2.00
66372;BMP180;53168;51.146;17.120;2023-11-19T05:05:44;99997.00;;;2.00
66372;BMP180;53168;51.146;17.120;2023-11-19T05:08:18;100005.80;;;2.10
66372;BMP180;53168;51.146;17.120;2023-11-19T05:10:52;99996.40;;;2.10
66372;BMP180;53168;51.146;17.120;2023-11-19T05:13:26;99992.80;;;2.10
66372;BMP180;53168;51.146;17.120;2023-11-19T05:16:00;99994.80;;;2.10
66372;BMP180;53168;51.146;17.120;2023-11-19T05:18:34;99992.00;;;2.18
66372;BMP180;53168;51.146;17.120;2023-11-19T05:21:09;99989.40;;;2.20
66372;BMP180;53168;51.146;17.120;2023-11-19T05:23:43;99972.80;;;2.22
66372;BMP180;53168;51.146;17.120;2023-11-19T05:26:23;99953.60;;;2.30
66372;BMP180;53168;51.146;17.120;2023-11-19T05:28:58;99947.40;;;2.30
66372;BMP180;53168;51.146;17.120;2023-11-19T05:31:33;99952.20;;;2.30
66372;BMP180;53168;51.146;17.120;2023-11-19T05:34:12;99945.00;;;2.30
66372;BMP180;53168;51.146;17.120;2023-11-19T05:36:48;99941.00;;;2.30
66372;BMP180;53168;51.146;17.120;2023-11-19T05:39:23;99939.80;;;2.30
66372;BMP180;53168;51.146;17.120;2023-11-19T05:41:57;99935.20;;;2.30
66372;BMP180;53168;51.146;17.120;2023-11-19T05:44:31;99940.40;;;2.28
66372;BMP180;53168;51.146;17.120;2023-11-19T05:47:06;99936.40;;;2.28
66372;BMP180;53168;51.146;17.120;2023-11-19T05:49:40;99939.20;;;2.24
66372;BMP180;53168;51.146;17.120;2023-11-19T05:52:14;99931.60;;;2.26
66372;BMP180;53168;51.146;17.120;2023-11-19T05:55:13;99926.80;;;2.20
66372;BMP180;53168;51.146;17.120;2023-11-19T05:57:48;99922.80;;;2.30
66372;BMP180;53168;51.146;17.120;2023-11-19T06:00:25;99918.60;;;2.30
66372;BMP180;53168;51.146;17.120;2023-11-19T06:03:00;99914.20;;;2.30
66372;BMP180;53168;51.146;17.120;2023-11-19T06:05:34;99921.60;;;2.40
66372;BMP180;53168;51.146;17.120;2023-11-19T06:08:08;99919.00;;;2.40
66372;BMP180;53168;51.146;17.120;2023-11-19T06:10:44;99908.40;;;2.40
66372;BMP180;53168;51.146;17.120;2023-11-19T06:13:20;99909.20;;;2.40
66372;BMP180;53168;51.146;17.120;2023-11-19T06:15:57;99904.40;;;2.40
66372;BMP180;53168;51.146;17.120;2023-11-19T06:18:31;99902.60;;;2.40
66372;BMP180;53168;51.146;17.120;2023-11-19T06:21:06;99894.40;;;2.40
66372;BMP180;53168;51.146;17.120;2023-11-19T06:23:41;99892.00;;;2.50
66372;BMP180;53168;51.146;17.120;2023-11-19T06:26:15;99898.40;;;2.50
66372;BMP180;53168;51.146;17.120;2023-11-19T06:28:48;99903.20;;;2.50
66372;BMP180;53168;51.146;17.120;2023-11-19T06:31:23;99885.20;;;2.60
66372;BMP180;53168;51.146;17.120;2023-11-19T06:33:57;99885.00;;;2.60
66372;BMP180;53168;51.146;17.120;2023-11-19T06:36:32;99885.00;;;2.60
66372;BMP180;53168;51.146;17.120;2023-11-19T06:39:07;99881.00;;;2.60
66372;BMP180;53168;51.146;17.120;2023-11-19T06:41:47;99872.00;;;2.60
66372;BMP180;53168;51.146;17.120;2023-11-19T06:44:25;99858.20;;;2.60
66372;BMP180;53168;51.146;17.120;2023-11-19T06:46:59;99858.20;;;2.68
66372;BMP180;53168;51.146;17.120;2023-11-19T06:49:34;99854.20;;;2.70
66372;BMP180;53168;51.146;17.120;2023-11-19T06:52:08;99851.60;;;2.70
66372;BMP180;53168;51.146;17.120;2023-11-19T06:54:44;99845.60;;;2.70
66372;BMP180;53168;51.146;17.120;2023-11-19T06:57:19;99835.80;;;2.78
66372;BMP180;53168;51.146;17.120;2023-11-19T06:59:54;99829.00;;;2.80
66372;BMP180;53168;51.146;17.120;2023-11-19T07:02:31;99821.40;;;2.80
66372;BMP180;53168;51.146;17.120;2023-11-19T07:05:08;99811.60;;;2.90
66372;BMP180;53168;51.146;17.120;2023-11-19T07:07:43;99801.40;;;2.90
66372;BMP180;53168;51.146;17.120;2023-11-19T07:10:20;99801.80;;;3.00
66372;BMP180;53168;51.146;17.120;2023-11-19T07:12:54;99810.00;;;3.00
66372;BMP180;53168;51.146;17.120;2023-11-19T07:15:29;99799.60;;;3.10
66372;BMP180;53168;51.146;17.120;2023-11-19T07:18:03;99801.60;;;3.10
66372;BMP180;53168;51.146;17.120;2023-11-19T07:20:38;99796.20;;;3.20
66372;BMP180;53168;51.146;17.120;2023-11-19T07:23:13;99789.00;;;3.20
66372;BMP180;53168;51.146;17.120;2023-11-19T07:25:49;99791.40;;;3.30
66372;BMP180;53168;51.146;17.120;2023-11-19T07:28:24;99779.40;;;3.30
66372;BMP180;53168;51.146;17.120;2023-11-19T07:30:59;99781.00;;;3.30
66372;BMP180;53168;51.146;17.120;2023-11-19T07:33:34;99773.40;;;3.40
66372;BMP180;53168;51.146;17.120;2023-11-19T07:36:14;99776.60;;;3.40
66372;BMP180;53168;51.146;17.120;2023-11-19T07:38:50;99780.20;;;3.50
66372;BMP180;53168;51.146;17.120;2023-11-19T07:41:24;99768.40;;;3.50
66372;BMP180;53168;51.146;17.120;2023-11-19T07:43:59;99772.40;;;3.60
66372;BMP180;53168;51.146;17.120;2023-11-19T07:46:51;99769.20;;;3.60
66372;BMP180;53168;51.146;17.120;2023-11-19T07:49:27;99760.60;;;3.70
66372;BMP180;53168;51.146;17.120;2023-11-19T07:52:12;99754.40;;;3.70
66372;BMP180;53168;51.146;17.120;2023-11-19T07:54:51;99753.40;;;3.76
66372;BMP180;53168;51.146;17.120;2023-11-19T07:57:29;99744.80;;;3.80
66372;BMP180;53168;51.146;17.120;2023-11-19T08:00:19;99744.80;;;3.70
66372;BMP180;53168;51.146;17.120;2023-11-19T08:02:54;99752.40;;;3.68
66372;BMP180;53168;51.146;17.120;2023-11-19T08:05:35;99751.80;;;3.70
66372;BMP180;53168;51.146;17.120;2023-11-19T08:08:09;99744.20;;;3.70
66372;BMP180;53168;51.146;17.120;2023-11-19T08:13:42;99734.40;;;3.70
66372;BMP180;53168;51.146;17.120;2023-11-19T08:16:25;99728.60;;;3.70
66372;BMP180;53168;51.146;17.120;2023-11-19T08:19:07;99723.40;;;3.70
66372;BMP180;53168;51.146;17.120;2023-11-19T08:21:41;99719.80;;;3.66
66372;BMP180;53168;51.146;17.120;2023-11-19T08:24:16;99717.20;;;3.60
66372;BMP180;53168;51.146;17.120;2023-11-19T08:26:51;99704.80;;;3.60
66372;BMP180;53168;51.146;17.120;2023-11-19T08:29:33;99710.60;;;3.52
66372;BMP180;53168;51.146;17.120;2023-11-19T08:32:11;99705.60;;;3.52
66372;BMP180;53168;51.146;17.120;2023-11-19T08:34:52;99696.00;;;3.50
66372;BMP180;53168;51.146;17.120;2023-11-19T08:37:42;99692.60;;;3.50
66372;BMP180;53168;51.146;17.120;2023-11-19T08:40:44;99686.40;;;3.50
66372;BMP180;53168;51.146;17.120;2023-11-19T08:43:20;99679.80;;;3.50
66372;BMP180;53168;51.146;17.120;2023-11-19T08:45:58;99669.60;;;3.40
66372;BMP180;53168;51.146;17.120;2023-11-19T08:48:41;99663.60;;;3.36
66372;BMP180;53168;51.146;17.120;2023-11-19T08:51:30;99662.80;;;3.30
66372;BMP180;53168;51.146;17.120;2023-11-19T08:54:12;99652.80;;;3.20
66372;BMP180;53168;51.146;17.120;2023-11-19T08:56:54;99642.40;;;3.16
66372;BMP180;53168;51.146;17.120;2023-11-19T08:59:29;99642.60;;;3.10
66372;BMP180;53168;51.146;17.120;2023-11-19T09:02:25;99629.80;;;3.00
66372;BMP180;53168;51.146;17.120;2023-11-19T09:05:19;99633.00;;;2.90
66372;BMP180;53168;51.146;17.120;2023-11-19T09:08:03;99630.80;;;2.90
66372;BMP180;53168;51.146;17.120;2023-11-19T09:10:49;99631.60;;;2.90
66372;BMP180;53168;51.146;17.120;2023-11-19T09:13:29;99622.20;;;2.90
66372;BMP180;53168;51.146;17.120;2023-11-19T09:16:12;99611.00;;;2.96
66372;BMP180;53168;51.146;17.120;2023-11-19T09:18:47;99610.00;;;3.00
66372;BMP180;53168;51.146;17.120;2023-11-19T09:21:24;99613.60;;;3.00
66372;BMP180;53168;51.146;17.120;2023-11-19T09:24:02;99618.80;;;3.10
66372;BMP180;53168;51.146;17.120;2023-11-19T09:26:38;99614.80;;;3.10
66372;BMP180;53168;51.146;17.120;2023-11-19T09:29:16;99607.80;;;3.10
66372;BMP180;53168;51.146;17.120;2023-11-19T09:32:20;99599.60;;;3.20
66372;BMP180;53168;51.146;17.120;2023-11-19T09:34:54;99596.40;;;3.30
66372;BMP180;53168;51.146;17.120;2023-11-19T09:37:29;99597.80;;;3.38
66372;BMP180;53168;51.146;17.120;2023-11-19T09:40:04;99599.20;;;3.44
66372;BMP180;53168;51.146;17.120;2023-11-19T09:42:47;99597.00;;;3.54
66372;BMP180;53168;51.146;17.120;2023-11-19T09:45:39;99588.20;;;3.60
66372;BMP180;53168;51.146;17.120;2023-11-19T09:48:22;99590.40;;;3.70
66372;BMP180;53168;51.146;17.120;2023-11-19T09:50:59;99586.00;;;3.72
66372;BMP180;53168;51.146;17.120;2023-11-19T09:53:36;99582.20;;;3.80
66372;BMP180;53168;51.146;17.120;2023-11-19T09:56:12;99575.80;;;3.80
66372;BMP180;53168;51.146;17.120;2023-11-19T09:58:53;99567.20;;;3.80
66372;BMP180;53168;51.146;17.120;2023-11-19T10:01:44;99558.40;;;3.80
66372;BMP180;53168;51.146;17.120;2023-11-19T10:04:22;99549.60;;;3.80
66372;BMP180;53168;51.146;17.120;2023-11-19T10:07:02;99538.80;;;3.80
66372;BMP180;53168;51.146;17.120;2023-11-19T10:09:50;99520.80;;;3.88
66372;BMP180;53168;51.146;17.120;2023-11-19T10:15:47;99505.00;;;3.90
66372;BMP180;53168;51.146;17.120;2023-11-19T10:18:32;99505.60;;;4.00
66372;BMP180;53168;51.146;17.120;2023-11-19T10:21:23;99500.00;;;4.10
66372;BMP180;53168;51.146;17.120;2023-11-19T10:56:42;99435.00;;;5.38
66372;BMP180;53168;51.146;17.120;2023-11-19T10:59:23;99431.40;;;5.30
66372;BMP180;53168;51.146;17.120;2023-11-19T11:02:11;99434.40;;;5.20
66372;BMP180;53168;51.146;17.120;2023-11-19T11:04:55;99428.80;;;5.10
66372;BMP180;53168;51.146;17.120;2023-11-19T11:07:42;99428.60;;;5.00
66372;BMP180;53168;51.146;17.120;2023-11-19T11:10:20;99428.80;;;4.90
66372;BMP180;53168;51.146;17.120;2023-11-19T11:13:19;99408.40;;;4.80
66372;BMP180;53168;51.146;17.120;2023-11-19T11:16:16;99404.60;;;4.80
66372;BMP180;53168;51.146;17.120;2023-11-19T11:19:18;99404.60;;;4.70
66372;BMP180;53168;51.146;17.120;2023-11-19T11:22:16;99408.20;;;4.70
66372;BMP180;53168;51.146;17.120;2023-11-19T11:25:37;99411.60;;;4.70
66372;BMP180;53168;51.146;17.120;2023-11-19T11:28:34;99412.60;;;4.70
66372;BMP180;53168;51.146;17.120;2023-11-19T11:38:25;99384.00;;;4.70
66372;BMP180;53168;51.146;17.120;2023-11-19T11:41:22;99378.60;;;4.70
66372;BMP180;53168;51.146;17.120;2023-11-19T11:44:05;99386.00;;;4.80
66372;BMP180;53168;51.146;17.120;2023-11-19T11:47:05;99383.80;;;4.80
66372;BMP180;53168;51.146;17.120;2023-11-19T11:49:45;99382.80;;;4.90
66372;BMP180;53168;51.146;17.120;2023-11-19T11:56:04;99378.40;;;4.90
66372;BMP180;53168;51.146;17.120;2023-11-19T11:58:48;99379.20;;;4.98
66372;BMP180;53168;51.146;17.120;2023-11-19T12:12:56;99360.80;;;5.20
66372;BMP180;53168;51.146;17.120;2023-11-19T12:16:12;99352.40;;;5.30
66372;BMP180;53168;51.146;17.120;2023-11-19T12:19:15;99350.60;;;5.40
66372;BMP180;53168;51.146;17.120;2023-11-19T12:22:02;99348.80;;;5.50
66372;BMP180;53168;51.146;17.120;2023-11-19T12:25:22;99339.00;;;5.70
66372;BMP180;53168;51.146;17.120;2023-11-19T12:27:58;99333.40;;;5.70
66372;BMP180;53168;51.146;17.120;2023-11-19T12:30:42;99332.20;;;5.76
66372;BMP180;53168;51.146;17.120;2023-11-19T12:33:53;99325.60;;;5.80
66372;BMP180;53168;51.146;17.120;2023-11-19T12:36:52;99324.60;;;5.92
66372;BMP180;53168;51.146;17.120;2023-11-19T12:39:58;99316.40;;;6.10
66372;BMP180;53168;51.146;17.120;2023-11-19T12:42:40;99309.00;;;6.20
66372;BMP180;53168;51.146;17.120;2023-11-19T12:45:23;99304.80;;;6.22
66372;BMP180;53168;51.146;17.120;2023-11-19T12:48:27;99310.20;;;6.32
66372;BMP180;53168;51.146;17.120;2023-11-19T12:51:34;99305.40;;;6.40
66372;BMP180;53168;51.146;17.120;2023-11-19T12:54:14;99311.60;;;6.40
66372;BMP180;53168;51.146;17.120;2023-11-19T12:56:56;99300.00;;;6.40
66372;BMP180;53168;51.146;17.120;2023-11-19T12:59:33;99300.80;;;6.40
66372;BMP180;53168;51.146;17.120;2023-11-19T13:06:02;99292.80;;;6.60
66372;BMP180;53168;51.146;17.120;2023-11-19T13:09:35;99295.00;;;6.66
66372;BMP180;53168;51.146;17.120;2023-11-19T13:12:20;99284.40;;;6.70
66372;BMP180;53168;51.146;17.120;2023-11-19T13:14:54;99287.20;;;6.70
66372;BMP180;53168;51.146;17.120;2023-11-19T13:17:30;99285.40;;;6.80
66372;BMP180;53168;51.146;17.120;2023-11-19T13:20:05;99277.80;;;6.80
66372;BMP180;53168;51.146;17.120;2023-11-19T13:22:55;99280.80;;;6.90
66372;BMP180;53168;51.146;17.120;2023-11-19T13:25:33;99279.00;;;6.90
66372;BMP180;53168;51.146;17.120;2023-11-19T13:28:13;99278.20;;;6.98
66372;BMP180;53168;51.146;17.120;2023-11-19T13:30:53;99277.00;;;6.92
66372;BMP180;53168;51.146;17.120;2023-11-19T13:33:36;99272.40;;;6.90
66372;BMP180;53168;51.146;17.120;2023-11-19T13:36:19;99270.40;;;6.90
66372;BMP180;53168;51.146;17.120;2023-11-19T13:38:56;99262.60;;;6.90
66372;BMP180;53168;51.146;17.120;2023-11-19T13:41:33;99263.60;;;7.00
66372;BMP180;53168;51.146;17.120;2023-11-19T13:44:08;99251.40;;;7.10
66372;BMP180;53168;51.146;17.120;2023-11-19T13:46:45;99253.00;;;7.24
66372;BMP180;53168;51.146;17.120;2023-11-19T13:49:20;99259.60;;;7.40
66372;BMP180;53168;51.146;17.120;2023-11-19T13:51:58;99257.00;;;7.50
66372;BMP180;53168;51.146;17.120;2023-11-19T13:54:34;99260.40;;;7.50
66372;BMP180;53168;51.146;17.120;2023-11-19T13:57:09;99259.80;;;7.50
66372;BMP180;53168;51.146;17.120;2023-11-19T13:59:46;99259.40;;;7.50
66372;BMP180;53168;51.146;17.120;2023-11-19T14:02:27;99265.40;;;7.50
66372;BMP180;53168;51.146;17.120;2023-11-19T14:05:04;99260.20;;;7.50
66372;BMP180;53168;51.146;17.120;2023-11-19T14:07:39;99264.00;;;7.50
66372;BMP180;53168;51.146;17.120;2023-11-19T14:10:14;99260.60;;;7.60
66372;BMP180;53168;51.146;17.120;2023-11-19T14:12:49;99256.00;;;7.60
66372;BMP180;53168;51.146;17.120;2023-11-19T14:15:29;99260.00;;;7.70
66372;BMP180;53168;51.146;17.120;2023-11-19T14:18:04;99254.20;;;7.80
66372;BMP180;53168;51.146;17.120;2023-11-19T14:20:47;99254.40;;;7.90
66372;BMP180;53168;51.146;17.120;2023-11-19T14:23:35;99257.60;;;7.98
66372;BMP180;53168;51.146;17.120;2023-11-19T14:26:19;99262.60;;;8.00
66372;BMP180;53168;51.146;17.120;2023-11-19T14:28:55;99269.80;;;8.00
66372;BMP180;53168;51.146;17.120;2023-11-19T14:31:59;99268.80;;;7.90
66372;BMP180;53168;51.146;17.120;2023-11-19T14:34:47;99266.60;;;7.80
66372;BMP180;53168;51.146;17.120;2023-11-19T14:37:24;99258.60;;;7.80
66372;BMP180;53168;51.146;17.120;2023-11-19T14:40:01;99257.60;;;7.76
66372;BMP180;53168;51.146;17.120;2023-11-19T14:42:39;99255.20;;;7.60
66372;BMP180;53168;51.146;17.120;2023-11-19T14:45:23;99250.00;;;7.40
66372;BMP180;53168;51.146;17.120;2023-11-19T14:48:20;99248.20;;;7.30
66372;BMP180;53168;51.146;17.120;2023-11-19T14:51:22;99250.60;;;7.40
66372;BMP180;53168;51.146;17.120;2023-11-19T14:53:57;99253.80;;;7.40
66372;BMP180;53168;51.146;17.120;2023-11-19T15:00:30;99249.00;;;7.40
66372;BMP180;53168;51.146;17.120;2023-11-19T15:03:21;99254.60;;;7.30
66372;BMP180;53168;51.146;17.120;2023-11-19T15:06:31;99254.00;;;7.30
66372;BMP180;53168;51.146;17.120;2023-11-19T15:12:12;99261.20;;;7.38
66372;BMP180;53168;51.146;17.120;2023-11-19T15:15:03;99261.80;;;7.40
66372;BMP180;53168;51.146;17.120;2023-11-19T15:21:17;99255.60;;;7.50
66372;BMP180;53168;51.146;17.120;2023-11-19T15:24:25;99253.20;;;7.60
66372;BMP180;53168;51.146;17.120;2023-11-19T15:30:39;99261.40;;;7.60
66372;BMP180;53168;51.146;17.120;2023-11-19T15:33:18;99262.80;;;7.60
66372;BMP180;53168;51.146;17.120;2023-11-19T15:35:53;99266.00;;;7.50
66372;BMP180;53168;51.146;17.120;2023-11-19T15:38:27;99261.40;;;7.40
66372;BMP180;53168;51.146;17.120;2023-11-19T15:41:01;99262.00;;;7.30
66372;BMP180;53168;51.146;17.120;2023-11-19T15:43:54;99257.20;;;7.20
66372;BMP180;53168;51.146;17.120;2023-11-19T15:46:55;99257.40;;;7.20
66372;BMP180;53168;51.146;17.120;2023-11-19T15:50:04;99257.00;;;7.10
66372;BMP180;53168;51.146;17.120;2023-11-19T15:52:52;99264.00;;;7.00
66372;BMP180;53168;51.146;17.120;2023-11-19T15:55:50;99272.40;;;7.00
66372;BMP180;53168;51.146;17.120;2023-11-19T16:02:55;99266.80;;;7.00
66372;BMP180;53168;51.146;17.120;2023-11-19T16:06:01;99275.20;;;7.00
66372;BMP180;53168;51.146;17.120;2023-11-19T16:08:46;99276.80;;;7.00
66372;BMP180;53168;51.146;17.120;2023-11-19T16:11:25;99282.80;;;7.00
66372;BMP180;53168;51.146;17.120;2023-11-19T16:14:14;99290.00;;;7.00
66372;BMP180;53168;51.146;17.120;2023-11-19T16:17:02;99289.20;;;7.00
66372;BMP180;53168;51.146;17.120;2023-11-19T16:19:58;99292.40;;;7.00
66372;BMP180;53168;51.146;17.120;2023-11-19T16:22:33;99288.80;;;7.00
66372;BMP180;53168;51.146;17.120;2023-11-19T16:25:11;99290.40;;;7.10
66372;BMP180;53168;51.146;17.120;2023-11-19T16:31:25;99291.20;;;7.26
66372;BMP180;53168;51.146;17.120;2023-11-19T16:34:37;99295.20;;;7.30
66372;BMP180;53168;51.146;17.120;2023-11-19T16:37:32;99291.20;;;7.42
66372;BMP180;53168;51.146;17.120;2023-11-19T16:40:10;99290.60;;;7.50
66372;BMP180;53168;51.146;17.120;2023-11-19T16:42:45;99287.00;;;7.50
66372;BMP180;53168;51.146;17.120;2023-11-19T16:45:21;99283.60;;;7.50
66372;BMP180;53168;51.146;17.120;2023-11-19T16:47:56;99282.60;;;7.58
66372;BMP180;53168;51.146;17.120;2023-11-19T16:50:31;99284.00;;;7.60
66372;BMP180;53168;51.146;17.120;2023-11-19T16:53:30;99281.00;;;7.60
66372;BMP180;53168;51.146;17.120;2023-11-19T16:56:31;99286.80;;;7.70